Time;durP1;ratioP1;P1;durP2;ratioP2;P2;SDS_P1;SDS_P2;PMS_P1;PMS_P2;Temp;Humidity;BMP_temperature;BMP_pressure;BME280_temperature;BME280_humidity;BME280_pressure;Samples;Min_cycle;Max_cycle;Signal;HPM_P1;HPM_P2
2023/04/12 00:01:33;;;;;;;;;5.33;4.00;;;;;11.68;100.00;99929.75;5008285;28;45956;-77
2023/04/12 00:03:58;;;;;;;;;4.67;3.33;;;;;11.64;100.00;99910.16;5013245;28;45486;-76
2023/04/12 00:06:26;;;;;;;;;5.00;2.00;;;;;11.72;100.00;99917.22;5014097;28;46155;-79
2023/04/12 00:08:52;;;;;;;;;2.00;2.00;;;;;11.76;100.00;99906.59;5013534;28;45465;-78
2023/04/12 00:11:17;;;;;;;;;4.33;3.00;;;;;11.76;100.00;99896.44;4995518;28;45677;-78
2023/04/12 00:13:42;;;;;;;;;5.33;3.00;;;;;11.78;100.00;99898.94;5012671;28;45620;-77
2023/04/12 00:16:08;;;;;;;;;4.67;2.67;;;;;11.76;100.00;99899.19;5012553;28;45603;-77
2023/04/12 00:18:34;;;;;;;;;3.00;2.67;;;;;11.78;100.00;99894.31;5011701;28;45485;-78
2023/04/12 00:20:59;;;;;;;;;4.67;2.67;;;;;11.78;100.00;99888.81;5013527;28;45624;-79
2023/04/12 00:23:25;;;;;;;;;3.00;2.00;;;;;11.80;100.00;99877.56;5014399;28;45552;-79
2023/04/12 00:25:50;;;;;;;;;4.00;3.00;;;;;11.75;100.00;99866.44;5009368;28;45687;-77
2023/04/12 00:28:15;;;;;;;;;6.00;4.00;;;;;11.77;100.00;99862.41;5012375;28;45494;-77
2023/04/12 00:30:41;;;;;;;;;6.67;4.00;;;;;11.66;100.00;99849.47;4991748;28;45729;-77
2023/04/12 00:33:07;;;;;;;;;4.33;3.00;;;;;11.78;100.00;99861.34;5005614;28;45884;-78
2023/04/12 00:35:32;;;;;;;;;2.33;2.33;;;;;11.80;100.00;99842.69;5013177;28;45384;-75
2023/04/12 00:37:57;;;;;;;;;5.00;2.00;;;;;11.81;100.00;99847.13;5014581;28;45462;-76
2023/04/12 00:40:23;;;;;;;;;5.00;4.00;;;;;11.73;100.00;99828.22;5012349;28;45371;-77
2023/04/12 00:42:48;;;;;;;;;5.33;3.67;;;;;11.78;100.00;99836.63;5012760;28;45899;-77
2023/04/12 00:45:14;;;;;;;;;2.67;1.67;;;;;11.79;100.00;99838.25;4994478;28;47225;-78
2023/04/12 00:47:41;;;;;;;;;3.00;3.00;;;;;11.80;100.00;99826.22;5013523;28;46069;-77
2023/04/12 00:50:08;;;;;;;;;4.67;4.67;;;;;11.78;100.00;99817.38;5011179;28;45553;-77
2023/04/12 00:52:34;;;;;;;;;5.00;4.00;;;;;11.86;100.00;99810.69;5011119;28;45912;-77
2023/04/12 00:55:03;;;;;;;;;5.00;4.00;;;;;11.88;100.00;99807.69;5012318;28;46202;-77
2023/04/12 00:57:37;;;;;;;;;4.00;4.00;;;;;11.85;100.00;99795.25;4991064;28;45843;-76
2023/04/12 01:00:11;;;;;;;;;7.00;3.33;;;;;11.91;100.00;99799.78;4988484;28;46270;-77
2023/04/12 01:02:38;;;;;;;;;2.00;2.00;;;;;11.94;100.00;99809.50;5009214;28;45826;-79
2023/04/12 01:05:06;;;;;;;;;3.67;3.00;;;;;11.79;100.00;99772.34;5010676;28;45446;-79
2023/04/12 01:08:13;;;;;;;;;4.67;4.00;;;;;11.96;100.00;99771.63;5012059;28;45603;-78
2023/04/12 01:11:05;;;;;;;;;2.67;2.67;;;;;12.01;100.00;99755.25;4996197;28;45475;-77
2023/04/12 01:13:55;;;;;;;;;4.00;4.00;;;;;12.02;100.00;99745.94;5008311;28;45905;-78
2023/04/12 01:16:39;;;;;;;;;5.00;3.00;;;;;12.03;100.00;99750.34;5010088;28;45763;-78
2023/04/12 01:19:27;;;;;;;;;4.00;2.00;;;;;12.09;100.00;99734.81;5011306;28;45602;-78
2023/04/12 01:22:09;;;;;;;;;5.67;4.00;;;;;12.07;100.00;99740.53;5011248;28;45444;-77
2023/04/12 01:24:54;;;;;;;;;3.33;3.33;;;;;12.11;100.00;99741.72;5012888;28;45494;-78
2023/04/12 01:27:48;;;;;;;;;4.00;3.67;;;;;12.07;100.00;99726.81;5011771;28;45839;-77
2023/04/12 01:30:18;;;;;;;;;3.33;3.00;;;;;12.19;100.00;99724.00;5011278;28;45367;-77
2023/04/12 01:32:50;;;;;;;;;3.00;3.00;;;;;12.05;100.00;99706.13;5012258;28;45851;-77
2023/04/12 01:35:18;;;;;;;;;7.00;3.00;;;;;12.18;100.00;99709.44;4994151;28;45779;-76
2023/04/12 01:37:45;;;;;;;;;2.67;1.33;;;;;12.21;100.00;99712.78;5000646;28;48213;-76
2023/04/12 01:40:12;;;;;;;;;4.00;3.00;;;;;12.21;100.00;99699.03;5009781;28;46135;-75
2023/04/12 01:42:38;;;;;;;;;8.00;3.33;;;;;12.21;100.00;99699.03;5008691;28;45459;-77
2023/04/12 01:45:04;;;;;;;;;3.67;2.00;;;;;12.20;100.00;99681.72;5010756;28;45986;-77
2023/04/12 01:47:30;;;;;;;;;2.67;2.67;;;;;12.17;100.00;99671.19;5009795;28;46071;-76
2023/04/12 01:50:10;;;;;;;;;4.00;3.00;;;;;12.23;100.00;99674.88;5012212;28;45769;-77
2023/04/12 01:52:42;;;;;;;;;1.33;1.33;;;;;12.16;100.00;99670.34;5011707;28;45794;-76
2023/04/12 01:55:10;;;;;;;;;7.00;2.00;;;;;12.23;100.00;99666.63;5000197;28;45742;-77
2023/04/12 01:57:37;;;;;;;;;3.33;3.00;;;;;12.18;100.00;99651.72;5011559;28;46932;-77
2023/04/12 02:00:06;;;;;;;;;3.33;3.33;;;;;12.11;100.00;99634.53;5009976;28;45731;-77
2023/04/12 02:02:34;;;;;;;;;3.00;2.00;;;;;12.28;100.00;99651.06;4992390;28;45714;-76
2023/04/12 02:05:00;;;;;;;;;2.00;2.00;;;;;12.29;100.00;99643.63;5011435;28;45545;-76
2023/04/12 02:07:27;;;;;;;;;2.00;2.00;;;;;12.29;100.00;99640.88;5019219;28;46506;-76
2023/04/12 02:09:52;;;;;;;;;8.33;3.00;;;;;12.31;100.00;99633.25;5012767;28;45810;-78
2023/04/12 02:12:17;;;;;;;;;3.67;2.67;;;;;12.39;100.00;99630.06;5012413;28;45958;-78
2023/04/12 02:14:43;;;;;;;;;4.00;2.00;;;;;12.38;100.00;99628.44;4993887;28;46739;-77
2023/04/12 02:17:11;;;;;;;;;0.00;0.00;;;;;12.39;100.00;99623.75;5009410;28;48146;-78
2023/04/12 02:19:37;;;;;;;;;4.33;2.00;;;;;12.19;100.00;99584.66;5010949;28;45396;-78
2023/04/12 02:22:03;;;;;;;;;3.67;2.67;;;;;12.28;100.00;99585.09;4992062;28;45416;-78
2023/04/12 02:24:28;;;;;;;;;2.00;2.00;;;;;12.42;100.00;99606.75;5010476;28;45447;-79
2023/04/12 02:26:55;;;;;;;;;2.00;2.00;;;;;12.41;100.00;99594.94;5010775;28;46069;-77
2023/04/12 02:29:20;;;;;;;;;2.33;1.67;;;;;12.42;100.00;99593.81;5011013;28;45411;-78
2023/04/12 02:31:47;;;;;;;;;2.33;1.67;;;;;12.43;100.00;99581.75;5010874;28;45858;-78
2023/04/12 02:34:14;;;;;;;;;2.67;1.33;;;;;12.44;100.00;99583.44;5011045;28;45864;-78
2023/04/12 02:36:40;;;;;;;;;1.67;1.67;;;;;12.48;100.00;99584.56;5009319;28;46740;-79
2023/04/12 02:39:06;;;;;;;;;2.00;2.00;;;;;12.50;100.00;99576.06;5009701;28;45544;-79
2023/04/12 02:41:31;;;;;;;;;3.33;1.33;;;;;12.39;100.00;99553.09;5009920;28;45506;-79
2023/04/12 02:43:57;;;;;;;;;1.67;1.67;;;;;12.50;100.00;99563.19;5008944;28;45818;-79
2023/04/12 02:46:24;;;;;;;;;1.67;1.33;;;;;12.53;100.00;99570.09;5006998;28;47978;-76
2023/04/12 02:48:50;;;;;;;;;0.33;0.00;;;;;12.54;100.00;99567.09;5009181;28;45514;-77
2023/04/12 02:51:15;;;;;;;;;0.67;0.67;;;;;12.58;100.00;99561.09;5010971;28;45474;-78
2023/04/12 02:53:41;;;;;;;;;1.33;1.33;;;;;12.60;100.00;99562.50;5010475;28;45874;-75
2023/04/12 02:56:07;;;;;;;;;2.33;1.00;;;;;12.67;100.00;99587.91;5009651;28;46957;-77
2023/04/12 02:58:34;;;;;;;;;2.67;1.67;;;;;12.71;100.00;99610.25;5010287;28;46195;-77
2023/04/12 03:00:59;;;;;;;;;0.00;0.00;;;;;12.77;100.00;99620.25;5008716;28;45822;-76
2023/04/12 03:03:26;;;;;;;;;3.00;2.33;;;;;12.75;100.00;99622.41;5009873;28;45784;-79
2023/04/12 03:05:52;;;;;;;;;0.67;0.00;;;;;12.76;100.00;99623.25;5010931;28;48130;-78
2023/04/12 03:08:18;;;;;;;;;0.00;0.00;;;;;12.69;100.00;99623.41;5011814;28;45721;-78
2023/04/12 03:10:43;;;;;;;;;0.00;0.00;;;;;12.59;100.00;99626.00;5010949;28;45647;-77
2023/04/12 03:13:09;;;;;;;;;1.33;1.00;;;;;12.50;100.00;99615.44;5010508;28;45745;-79
2023/04/12 03:15:35;;;;;;;;;0.33;0.00;;;;;12.31;100.00;99614.00;5010585;28;45727;-81
2023/04/12 03:18:01;;;;;;;;;0.00;0.00;;;;;12.16;100.00;99607.13;5010844;28;45549;-79
2023/04/12 03:20:27;;;;;;;;;0.00;0.00;;;;;12.07;100.00;99603.13;5010540;28;45552;-80
2023/04/12 03:22:52;;;;;;;;;0.00;0.00;;;;;11.99;100.00;99603.50;4995476;28;45848;-82
2023/04/12 03:25:18;;;;;;;;;0.00;0.00;;;;;11.90;100.00;99597.56;5009881;28;45751;-78
2023/04/12 03:27:44;;;;;;;;;0.00;0.00;;;;;11.79;100.00;99574.56;5009309;28;45441;-79
2023/04/12 03:30:10;;;;;;;;;0.00;0.00;;;;;11.74;100.00;99606.59;5010288;28;45384;-80
2023/04/12 03:32:40;;;;;;;;;0.00;0.00;;;;;11.71;100.00;99618.91;5012860;28;45515;-80
2023/04/12 03:35:07;;;;;;;;;0.00;0.00;;;;;11.67;100.00;99617.72;5010572;28;46410;-80
2023/04/12 03:37:33;;;;;;;;;0.00;0.00;;;;;11.53;100.00;99555.94;5011762;28;45888;-81
2023/04/12 03:39:58;;;;;;;;;0.00;0.00;;;;;11.78;100.00;99591.28;5009191;28;45881;-78
2023/04/12 03:42:24;;;;;;;;;0.00;0.00;;;;;11.69;100.00;99577.13;5007859;28;45483;-79
2023/04/12 03:44:51;;;;;;;;;0.00;0.00;;;;;11.76;100.00;99587.97;5010219;28;46284;-81
2023/04/12 03:47:17;;;;;;;;;0.00;0.00;;;;;11.78;100.00;99597.63;5010397;28;45438;-79
2023/04/12 03:49:42;;;;;;;;;0.00;0.00;;;;;11.74;100.00;99590.13;5008823;28;45533;-79
2023/04/12 03:52:08;;;;;;;;;0.00;0.00;;;;;11.71;100.00;99580.47;5011075;28;45399;-81
2023/04/12 03:54:33;;;;;;;;;0.67;0.00;;;;;11.74;100.00;99584.63;4992353;28;46894;-80
2023/04/12 03:56:59;;;;;;;;;0.00;0.00;;;;;11.74;100.00;99570.91;5010147;28;45754;-80
2023/04/12 03:59:24;;;;;;;;;0.00;0.00;;;;;11.74;100.00;99573.66;5009837;28;45463;-80
2023/04/12 04:01:50;;;;;;;;;0.00;0.00;;;;;11.58;100.00;99536.81;4988178;28;46455;-78
2023/04/12 04:04:15;;;;;;;;;0.00;0.00;;;;;11.80;100.00;99568.00;5010408;28;46002;-78
2023/04/12 04:06:41;;;;;;;;;0.00;0.00;;;;;11.82;100.00;99565.00;5011557;28;45571;-78
2023/04/12 04:09:06;;;;;;;;;0.00;0.00;;;;;11.83;100.00;99573.00;5007576;28;45527;-78
2023/04/12 04:11:31;;;;;;;;;0.00;0.00;;;;;11.70;100.00;99548.56;5009367;28;45809;-79
2023/04/12 04:13:57;;;;;;;;;0.00;0.00;;;;;11.84;100.00;99569.16;5009998;28;45684;-81
2023/04/12 04:16:22;;;;;;;;;0.00;0.00;;;;;11.83;100.00;99566.66;5010051;28;45975;-81
2023/04/12 04:18:48;;;;;;;;;0.00;0.00;;;;;11.82;100.00;99565.81;5009444;28;45464;-80
2023/04/12 04:21:13;;;;;;;;;0.00;0.00;;;;;11.83;100.00;99567.50;5006985;28;47380;-81
2023/04/12 04:23:43;;;;;;;;;0.00;0.00;;;;;11.86;100.00;99568.09;5009454;28;46692;-81
2023/04/12 04:26:09;;;;;;;;;0.00;0.00;;;;;11.84;100.00;99560.94;5008261;28;45617;-77
2023/04/12 04:28:37;;;;;;;;;1.00;1.00;;;;;11.88;100.00;99557.69;5008319;28;45490;-78
2023/04/12 04:31:05;;;;;;;;;0.00;0.00;;;;;11.80;100.00;99551.50;5008687;28;45542;-82
2023/04/12 04:33:34;;;;;;;;;0.67;0.00;;;;;11.91;100.00;99554.44;4991121;28;48294;-77
2023/04/12 04:36:00;;;;;;;;;1.00;1.00;;;;;11.82;100.00;99538.34;5006744;28;45441;-79
2023/04/12 04:38:27;;;;;;;;;11.67;7.00;;;;;11.93;100.00;99555.91;5009272;28;45500;-78
2023/04/12 04:40:52;;;;;;;;;35.67;30.00;;;;;11.93;100.00;99552.31;5010824;28;45519;-79
2023/04/12 04:43:19;;;;;;;;;1.67;0.67;;;;;11.92;100.00;99553.38;5011233;28;45717;-79
2023/04/12 04:45:48;;;;;;;;;1.00;1.00;;;;;11.94;100.00;99546.56;5010888;28;45817;-77
2023/04/12 04:48:15;;;;;;;;;11.67;8.00;;;;;11.95;100.00;99547.41;5010422;28;46245;-78
2023/04/12 04:50:40;;;;;;;;;1.00;1.00;;;;;11.96;100.00;99538.06;5011414;28;45806;-78
2023/04/12 04:53:06;;;;;;;;;2.33;2.33;;;;;11.95;100.00;99533.69;5011195;28;45514;-78
2023/04/12 04:55:31;;;;;;;;;0.00;0.00;;;;;11.87;100.00;99531.28;5011568;28;45825;-77
2023/04/12 04:57:57;;;;;;;;;4.00;4.00;;;;;11.84;100.00;99549.94;5008691;28;45986;-79
2023/04/12 05:00:24;;;;;;;;;1.33;1.00;;;;;11.90;100.00;99550.03;5009837;28;45596;-78
2023/04/12 05:02:50;;;;;;;;;9.33;9.33;;;;;11.79;100.00;99530.59;5007466;28;47304;-77
2023/04/12 05:05:16;;;;;;;;;1.00;1.00;;;;;11.80;100.00;99536.94;5011806;28;45797;-78
2023/04/12 05:07:42;;;;;;;;;1.33;1.33;;;;;11.81;100.00;99560.56;5013103;28;46471;-80
2023/04/12 05:10:09;;;;;;;;;1.67;1.33;;;;;11.74;100.00;99568.97;4994062;28;46051;-80
2023/04/12 05:12:38;;;;;;;;;2.00;2.00;;;;;11.74;100.00;99579.97;5012962;28;46019;-80
2023/04/12 05:15:04;;;;;;;;;2.67;2.67;;;;;11.75;100.00;99587.13;5013195;28;45961;-79
2023/04/12 05:17:30;;;;;;;;;2.00;2.00;;;;;11.68;100.00;99578.19;5010941;28;45861;-78
2023/04/12 05:19:56;;;;;;;;;0.00;0.00;;;;;11.48;100.00;99560.25;5012359;28;46843;-76
2023/04/12 05:22:22;;;;;;;;;0.00;0.00;;;;;11.48;100.00;99584.97;5012703;28;45508;-76
2023/04/12 05:24:48;;;;;;;;;2.00;0.00;;;;;11.28;100.00;99563.41;5006471;28;45399;-76
2023/04/12 05:27:17;;;;;;;;;2.00;1.00;;;;;11.14;100.00;99570.25;5005789;28;46800;-75
2023/04/12 05:29:43;;;;;;;;;2.00;1.00;;;;;11.13;100.00;99588.59;4983001;28;47401;-76
2023/04/12 05:32:09;;;;;;;;;0.33;0.33;;;;;11.03;100.00;99584.81;4991886;28;48014;-75
2023/04/12 05:34:34;;;;;;;;;0.00;0.00;;;;;11.03;100.00;99604.00;5008137;28;45916;-76
2023/04/12 05:37:00;;;;;;;;;1.00;0.00;;;;;10.97;100.00;99607.72;5006289;28;45764;-74
2023/04/12 05:39:26;;;;;;;;;0.00;0.00;;;;;10.76;100.00;99588.91;5005986;28;45903;-76
2023/04/12 05:41:52;;;;;;;;;0.00;0.00;;;;;10.86;100.00;99623.94;4998712;28;47054;-78
2023/04/12 05:44:18;;;;;;;;;0.33;0.33;;;;;10.78;100.00;99597.72;5006941;28;45459;-76
2023/04/12 05:46:43;;;;;;;;;2.00;0.00;;;;;10.91;100.00;99615.00;5004596;28;45429;-75
2023/04/12 05:49:08;;;;;;;;;1.00;0.00;;;;;10.84;100.00;99609.63;5007863;28;47017;-75
2023/04/12 05:51:34;;;;;;;;;0.67;0.67;;;;;10.91;100.00;99628.69;5010598;28;46178;-76
2023/04/12 05:54:00;;;;;;;;;0.67;0.67;;;;;10.87;100.00;99630.28;5011650;28;45375;-75
2023/04/12 05:56:25;;;;;;;;;1.00;1.00;;;;;10.91;100.00;99636.94;5010903;28;45681;-76
2023/04/12 05:58:51;;;;;;;;;2.00;2.00;;;;;10.83;100.00;99635.38;4991912;28;46265;-76
2023/04/12 06:01:18;;;;;;;;;3.00;2.00;;;;;10.86;100.00;99625.84;5009079;28;48213;-75
2023/04/12 06:03:44;;;;;;;;;2.67;2.33;;;;;10.89;100.00;99633.59;5010634;28;45924;-77
2023/04/12 06:06:10;;;;;;;;;4.00;2.67;;;;;10.82;100.00;99610.94;4986797;28;45775;-79
2023/04/12 06:08:36;;;;;;;;;6.67;4.67;;;;;11.15;100.00;99637.75;5007476;28;45757;-77
2023/04/12 06:11:06;;;;;;;;;2.00;2.00;;;;;11.23;100.00;99631.91;5007928;28;46003;-78
2023/04/12 06:13:32;;;;;;;;;4.00;2.67;;;;;11.36;100.00;99628.09;4982454;28;45598;-75
2023/04/12 06:15:57;;;;;;;;;1.00;1.00;;;;;11.52;100.00;99617.41;5006940;28;45758;-76
2023/04/12 06:18:23;;;;;;;;;6.67;4.00;;;;;11.81;100.00;99621.00;5009097;28;45971;-76
2023/04/12 06:20:48;;;;;;;;;2.00;2.00;;;;;12.10;100.00;99621.06;4988925;28;47149;-77
2023/04/12 06:23:14;;;;;;;;;1.33;1.33;;;;;12.35;100.00;99642.66;5005199;28;45965;-75
2023/04/12 06:25:40;;;;;;;;;1.00;1.00;;;;;12.38;100.00;99633.94;5006475;28;45768;-76
2023/04/12 06:28:05;;;;;;;;;3.00;3.00;;;;;12.32;100.00;99633.00;5007246;28;45970;-77
2023/04/12 06:30:31;;;;;;;;;4.33;3.33;;;;;12.28;100.00;99633.75;5007203;28;45917;-76
2023/04/12 06:32:56;;;;;;;;;3.67;2.33;;;;;12.22;100.00;99642.97;5006799;28;45664;-75
2023/04/12 06:35:22;;;;;;;;;3.00;3.00;;;;;12.18;100.00;99637.97;5006938;28;45627;-75
2023/04/12 06:37:48;;;;;;;;;7.67;3.00;;;;;12.22;100.00;99632.00;4996859;28;45898;-75
2023/04/12 06:40:13;;;;;;;;;3.67;2.33;;;;;12.23;100.00;99622.63;4990085;28;46650;-79
2023/04/12 06:42:38;;;;;;;;;5.00;2.00;;;;;12.38;100.00;99628.44;5007675;28;45593;-76
2023/04/12 06:45:04;;;;;;;;;5.00;4.00;;;;;12.50;100.00;99631.06;5010293;28;45596;-77
2023/04/12 06:47:31;;;;;;;;;2.00;2.00;;;;;12.50;100.00;99629.19;5007828;28;45807;-75
2023/04/12 06:49:57;;;;;;;;;2.67;2.67;;;;;12.60;100.00;99655.19;5006384;28;45910;-76
2023/04/12 06:52:24;;;;;;;;;3.33;3.33;;;;;12.56;100.00;99651.25;4987007;28;45192;-76
2023/04/12 06:54:50;;;;;;;;;1.67;1.67;;;;;12.33;100.00;99647.56;5006612;28;45989;-76
2023/04/12 06:57:15;;;;;;;;;3.33;0.67;;;;;12.23;100.00;99650.13;5006211;28;46536;-76
2023/04/12 06:59:41;;;;;;;;;1.00;0.00;;;;;12.07;100.00;99652.59;5001444;28;46283;-76
2023/04/12 07:02:06;;;;;;;;;0.00;0.00;;;;;12.06;100.00;99661.91;5006290;28;46260;-76
2023/04/12 07:04:32;;;;;;;;;2.67;1.00;;;;;11.97;100.00;99625.75;5002595;28;45922;-78
2023/04/12 07:06:57;;;;;;;;;3.00;1.00;;;;;12.11;100.00;99647.44;5004416;28;45552;-75
2023/04/12 07:09:23;;;;;;;;;2.67;1.67;;;;;12.15;100.00;99629.38;4989501;28;46789;-75
2023/04/12 07:11:48;;;;;;;;;3.00;3.00;;;;;12.25;100.00;99631.50;5007398;28;45737;-77
2023/04/12 07:14:13;;;;;;;;;0.67;0.67;;;;;12.35;100.00;99638.00;5000921;28;45814;-75
2023/04/12 07:16:39;;;;;;;;;2.33;2.33;;;;;12.36;100.00;99633.31;5006809;28;45711;-77
2023/04/12 07:19:05;;;;;;;;;3.33;2.67;;;;;12.51;100.00;99633.59;5014425;28;45648;-77
2023/04/12 07:21:30;;;;;;;;;1.33;1.33;;;;;12.53;100.00;99641.59;5008188;28;45759;-75
2023/04/12 07:23:56;;;;;;;;;2.00;2.00;;;;;12.53;100.00;99631.44;5001814;28;45738;-77
2023/04/12 07:26:21;;;;;;;;;1.00;1.00;;;;;12.65;100.00;99616.75;5007132;28;45435;-76
2023/04/12 07:28:47;;;;;;;;;2.00;2.00;;;;;12.84;100.00;99620.94;5003591;28;47312;-75
2023/04/12 07:31:12;;;;;;;;;2.00;2.00;;;;;13.02;100.00;99610.72;5004070;28;45509;-74
2023/04/12 07:33:38;;;;;;;;;2.33;0.67;;;;;13.34;100.00;99615.59;5006688;28;45919;-78
2023/04/12 07:36:03;;;;;;;;;3.67;1.33;;;;;13.73;100.00;99610.84;5007351;28;46046;-77
2023/04/12 07:38:29;;;;;;;;;0.67;0.33;;;;;13.83;100.00;99612.91;4988793;28;46111;-77
2023/04/12 07:40:55;;;;;;;;;0.67;0.67;;;;;13.79;100.00;99597.97;5005248;28;45962;-76
2023/04/12 07:43:23;;;;;;;;;1.67;1.67;;;;;14.04;100.00;99619.47;5011886;28;45435;-78
2023/04/12 07:45:49;;;;;;;;;2.67;0.33;;;;;14.13;100.00;99614.28;4999714;28;45795;-79
2023/04/12 07:48:14;;;;;;;;;3.00;2.00;;;;;14.21;100.00;99602.78;5007069;28;46109;-79
2023/04/12 07:50:40;;;;;;;;;1.67;1.00;;;;;14.18;100.00;99586.78;5006826;28;45357;-78
2023/04/12 07:53:26;;;;;;;;;1.00;0.00;;;;;14.32;100.00;99605.66;5009684;28;45585;-78
2023/04/12 07:55:52;;;;;;;;;2.00;0.00;;;;;14.58;100.00;99599.25;4979877;28;45386;-78
2023/04/12 07:58:18;;;;;;;;;2.00;1.00;;;;;15.20;100.00;99609.91;4988181;28;47773;-79
2023/04/12 08:00:44;;;;;;;;;0.00;0.00;;;;;15.75;100.00;99625.09;4989076;28;45803;-78
2023/04/12 08:03:15;;;;;;;;;2.33;2.00;;;;;16.15;100.00;99631.03;4985783;28;45600;-77
2023/04/12 08:05:41;;;;;;;;;3.33;1.67;;;;;16.32;100.00;99628.03;4990422;28;45790;-79
2023/04/12 08:08:10;;;;;;;;;2.00;1.67;;;;;16.39;100.00;99643.25;4993954;28;46432;-78
2023/04/12 08:10:37;;;;;;;;;0.00;0.00;;;;;16.29;100.00;99640.47;4981793;28;45542;-77
2023/04/12 08:13:04;;;;;;;;;1.00;0.33;;;;;16.25;100.00;99647.66;4997070;28;45490;-78
2023/04/12 08:15:29;;;;;;;;;0.00;0.00;;;;;16.56;100.00;99664.31;4988784;28;45531;-78
2023/04/12 08:17:55;;;;;;;;;0.00;0.00;;;;;16.79;100.00;99662.91;4991592;28;47586;-79
2023/04/12 08:20:20;;;;;;;;;1.33;1.33;;;;;17.09;100.00;99662.09;4986301;28;45701;-78
2023/04/12 08:22:47;;;;;;;;;2.33;1.00;;;;;17.43;100.00;99661.47;4996686;28;45450;-79
2023/04/12 08:25:12;;;;;;;;;0.00;0.00;;;;;17.55;100.00;99650.09;4979790;28;46749;-79
2023/04/12 08:27:42;;;;;;;;;0.33;0.33;;;;;17.91;100.00;99665.78;4992614;28;46524;-78
2023/04/12 08:30:08;;;;;;;;;1.00;0.00;;;;;18.20;100.00;99663.13;4996296;28;45703;-79
2023/04/12 08:32:35;;;;;;;;;0.00;0.00;;;;;18.11;100.00;99671.25;4992868;28;45874;-78
2023/04/12 08:35:01;;;;;;;;;0.00;0.00;;;;;17.93;100.00;99671.88;4984024;28;45780;-79
2023/04/12 08:37:26;;;;;;;;;1.00;0.00;;;;;17.91;100.00;99661.06;4993563;28;46183;-77
2023/04/12 08:39:52;;;;;;;;;0.25;0.00;;;;;17.99;100.00;99674.34;5002433;28;45829;-79
2023/04/12 08:42:18;;;;;;;;;1.00;0.00;;;;;17.87;100.00;99676.56;4986148;28;45720;-78
2023/04/12 08:44:44;;;;;;;;;0.00;0.00;;;;;17.95;100.00;99670.47;4993865;28;45579;-77
2023/04/12 08:47:10;;;;;;;;;0.00;0.00;;;;;18.88;100.00;99659.63;4989453;28;46139;-79
2023/04/12 08:49:36;;;;;;;;;0.00;0.00;;;;;20.01;100.00;99667.88;4988322;28;45722;-81
2023/04/12 08:52:06;;;;;;;;;2.00;0.50;;;;;21.43;100.00;99670.66;4994806;28;45447;-82
2023/04/12 08:54:33;;;;;;;;;0.00;0.00;;;;;22.32;96.40;99652.66;4974193;28;46140;-79
2023/04/12 08:57:01;;;;;;;;;0.00;0.00;;;;;23.76;91.36;99670.56;4991740;28;45847;-77
2023/04/12 08:59:28;;;;;;;;;0.50;0.00;;;;;24.46;83.45;99679.94;5005214;28;45936;-77
2023/04/12 09:01:54;;;;;;;;;1.00;0.00;;;;;25.57;75.08;99688.09;5009585;28;45966;-79
2023/04/12 09:04:20;;;;;;;;;1.00;0.00;;;;;26.30;69.53;99667.41;5009244;28;45847;-75
2023/04/12 09:06:45;;;;;;;;;1.25;0.00;;;;;27.39;65.11;99675.91;5011121;28;45939;-74
2023/04/12 09:09:11;;;;;;;;;0.00;0.00;;;;;28.22;60.24;99678.66;5010538;28;45716;-76
2023/04/12 09:11:36;;;;;;;;;1.00;0.00;;;;;28.47;56.67;99679.44;5010630;28;45991;-83
2023/04/12 09:14:25;;;;;;;;;0.25;0.25;;;;;28.44;54.52;99668.88;4994157;28;46033;-83
2023/04/12 09:16:50;;;;;;;;;1.00;0.00;;;;;27.93;53.62;99658.78;5007298;28;46678;-81
2023/04/12 09:19:33;;;;;;;;;0.25;0.00;;;;;27.29;53.65;99669.53;5010320;28;45532;-83
2023/04/12 09:21:59;;;;;;;;;0.00;0.00;;;;;27.93;50.47;99664.44;5007061;28;45995;-81
2023/04/12 09:24:24;;;;;;;;;0.00;0.00;;;;;28.85;50.06;99661.25;5011276;28;45794;-81
2023/04/12 09:27:05;;;;;;;;;0.00;0.00;;;;;29.18;49.06;99668.63;5002531;28;45594;-79
2023/04/12 09:29:32;;;;;;;;;0.80;0.00;;;;;29.20;46.75;99655.75;5011028;28;45533;-79
2023/04/12 09:32:05;;;;;;;;;0.00;0.00;;;;;29.86;44.58;99667.59;4997856;28;45886;-81
2023/04/12 09:34:31;;;;;;;;;0.00;0.00;;;;;30.44;43.62;99668.97;5010721;28;45892;-77
2023/04/12 09:36:57;;;;;;;;;0.25;0.00;;;;;30.65;41.32;99662.16;4991873;28;46754;-79
2023/04/12 09:39:30;;;;;;;;;0.00;0.00;;;;;29.56;41.39;99670.84;5009748;28;45532;-76
2023/04/12 09:42:10;;;;;;;;;0.00;0.00;;;;;28.49;43.27;99671.44;5009843;28;45969;-79
2023/04/12 09:44:39;;;;;;;;;1.00;0.00;;;;;28.12;44.06;99674.34;5007228;28;45760;-79
2023/04/12 09:47:05;;;;;;;;;0.00;0.00;;;;;26.98;45.79;99686.06;5008442;28;45497;-80
2023/04/12 09:49:40;;;;;;;;;0.25;0.00;;;;;25.44;46.60;99661.91;5010337;28;45865;-80
2023/04/12 09:52:09;;;;;;;;;1.00;0.00;;;;;24.44;48.93;99676.63;4997198;28;45444;-81
2023/04/12 09:54:38;;;;;;;;;1.00;1.00;;;;;25.06;49.09;99657.00;5010881;28;45663;-83
2023/04/12 09:57:07;;;;;;;;;1.00;0.00;;;;;26.24;48.17;99684.47;5012197;28;45912;-82
2023/04/12 09:59:36;;;;;;;;;0.00;0.00;;;;;27.00;43.95;99678.91;5010345;28;45896;-81
2023/04/12 10:02:07;;;;;;;;;0.50;0.00;;;;;28.04;43.34;99675.25;4992585;28;45510;-81
2023/04/12 10:04:34;;;;;;;;;0.00;0.00;;;;;28.96;41.43;99684.13;5008883;28;45780;-81
2023/04/12 10:07:01;;;;;;;;;0.00;0.00;;;;;29.65;40.88;99673.50;5021263;28;47419;-82
2023/04/12 10:09:27;;;;;;;;;0.00;0.00;;;;;30.71;38.57;99675.63;5011144;28;45542;-81
2023/04/12 10:11:52;;;;;;;;;0.00;0.00;;;;;31.64;38.38;99679.47;5009979;28;45714;-83
2023/04/12 10:14:20;;;;;;;;;0.00;0.00;;;;;30.58;36.74;99682.59;5010551;28;46204;-81
2023/04/12 10:16:47;;;;;;;;;0.00;0.00;;;;;29.34;36.72;99675.13;5008514;28;48839;-81
2023/04/12 10:19:13;;;;;;;;;1.00;0.00;;;;;27.83;36.36;99681.84;5001266;28;45746;-83
2023/04/12 10:21:38;;;;;;;;;0.75;0.75;;;;;26.33;37.83;99680.78;5009451;28;46025;-74
2023/04/12 10:24:06;;;;;;;;;1.50;1.00;;;;;26.17;39.03;99692.63;5009220;28;45836;-76
2023/04/12 10:26:31;;;;;;;;;1.00;1.00;;;;;26.19;39.19;99684.66;5006794;28;46590;-75
2023/04/12 10:29:21;;;;;;;;;1.00;1.00;;;;;26.22;40.18;99698.03;5000917;28;45847;-78
2023/04/12 10:31:46;;;;;;;;;6.25;4.25;;;;;25.99;39.53;99696.69;5004740;28;45514;-76
2023/04/12 10:34:12;;;;;;;;;2.50;1.25;;;;;25.50;40.16;99685.81;5009522;28;45538;-85
2023/04/12 10:36:53;;;;;;;;;17.33;12.00;;;;;24.95;40.46;99688.19;5000165;28;47154;-85
2023/04/12 10:39:36;;;;;;;;;15.67;12.67;;;;;24.18;42.27;99686.97;5004318;28;45447;-85
2023/04/12 10:42:28;;;;;;;;;9.67;9.67;;;;;24.13;42.77;99693.56;5006404;28;45958;-84
2023/04/12 10:44:56;;;;;;;;;32.67;24.67;;;;;23.91;42.65;99691.72;4986322;28;46384;-83
2023/04/12 10:47:47;;;;;;;;;5.00;4.00;;;;;23.32;43.43;99684.31;5005838;28;46408;-84
2023/04/12 10:50:23;;;;;;;;;15.67;13.33;;;;;22.94;44.04;99701.50;4998273;28;45653;-83
2023/04/12 10:53:15;;;;;;;;;6.00;5.00;;;;;23.70;43.95;99689.47;5012430;28;45502;-83
2023/04/12 10:55:44;;;;;;;;;4.50;4.00;;;;;24.28;44.17;99697.88;5008827;28;45580;-76
2023/04/12 10:58:10;;;;;;;;;5.50;3.00;;;;;24.47;44.02;99673.16;5001076;28;46036;-76
2023/04/12 11:00:54;;;;;;;;;2.00;0.75;;;;;23.82;43.32;99694.44;5005395;28;45886;-76
2023/04/12 11:03:20;;;;;;;;;9.00;7.50;;;;;23.47;44.34;99708.28;5002591;28;45868;-77
2023/04/12 11:05:59;;;;;;;;;3.00;2.00;;;;;23.11;44.37;99716.78;5005486;28;45893;-76
2023/04/12 11:08:27;;;;;;;;;2.00;2.00;;;;;23.14;44.47;99688.19;5012188;28;45884;-75
2023/04/12 11:10:59;;;;;;;;;1.50;0.00;;;;;23.03;44.77;99705.19;5007262;28;45874;-76
2023/04/12 11:13:25;;;;;;;;;7.50;5.00;;;;;23.01;44.09;99707.47;4988698;28;45919;-75
2023/04/12 11:16:13;;;;;;;;;3.75;3.75;;;;;22.95;43.44;99707.91;5004778;28;45979;-78
2023/04/12 11:18:38;;;;;;;;;6.33;6.00;;;;;22.44;44.42;99701.56;4996311;28;45584;-74
2023/04/12 11:21:04;;;;;;;;;1.25;1.25;;;;;22.02;44.49;99694.06;5003265;28;45586;-74
2023/04/12 11:23:31;;;;;;;;;2.00;0.75;;;;;21.21;45.42;99671.34;5007029;28;45731;-74
2023/04/12 11:25:57;;;;;;;;;3.25;3.25;;;;;21.22;47.26;99693.34;5007757;28;46462;-76
2023/04/12 11:28:24;;;;;;;;;2.50;1.50;;;;;21.03;47.14;99687.81;5007897;28;45748;-74
2023/04/12 11:30:55;;;;;;;;;1.00;1.00;;;;;20.77;47.41;99690.22;5004034;28;46012;-74